sensor_id;sensor_type;location;lat;lon;timestamp;P1;durP1;ratioP1;P2;durP2;ratioP2
62610;SDS011;48683;48.084;17.272;2023-09-19T00:02:17;4.00;;;1.60;;
62610;SDS011;48683;48.084;17.272;2023-09-19T00:05:12;2.95;;;1.52;;
62610;SDS011;48683;48.084;17.272;2023-09-19T00:07:37;4.10;;;1.43;;
62610;SDS011;48683;48.084;17.272;2023-09-19T00:10:03;3.90;;;1.23;;
62610;SDS011;48683;48.084;17.272;2023-09-19T00:12:29;2.40;;;1.23;;
62610;SDS011;48683;48.084;17.272;2023-09-19T00:14:55;3.47;;;1.40;;
62610;SDS011;48683;48.084;17.272;2023-09-19T00:17:21;3.17;;;1.25;;
62610;SDS011;48683;48.084;17.272;2023-09-19T00:19:47;4.77;;;1.30;;
62610;SDS011;48683;48.084;17.272;2023-09-19T00:22:16;4.82;;;1.27;;
62610;SDS011;48683;48.084;17.272;2023-09-19T00:24:43;5.47;;;1.48;;
62610;SDS011;48683;48.084;17.272;2023-09-19T00:27:09;4.00;;;1.40;;
62610;SDS011;48683;48.084;17.272;2023-09-19T00:29:34;3.03;;;1.30;;
62610;SDS011;48683;48.084;17.272;2023-09-19T00:32:00;1.57;;;1.20;;
62610;SDS011;48683;48.084;17.272;2023-09-19T00:34:28;6.40;;;1.60;;
62610;SDS011;48683;48.084;17.272;2023-09-19T00:36:55;6.55;;;1.55;;
62610;SDS011;48683;48.084;17.272;2023-09-19T00:39:20;4.72;;;1.63;;
62610;SDS011;48683;48.084;17.272;2023-09-19T00:41:46;2.97;;;1.08;;
62610;SDS011;48683;48.084;17.272;2023-09-19T00:44:12;3.50;;;1.40;;
62610;SDS011;48683;48.084;17.272;2023-09-19T00:46:38;4.47;;;1.50;;
62610;SDS011;48683;48.084;17.272;2023-09-19T00:49:03;7.70;;;1.00;;
62610;SDS011;48683;48.084;17.272;2023-09-19T00:51:28;3.50;;;1.13;;
62610;SDS011;48683;48.084;17.272;2023-09-19T00:53:54;2.47;;;0.87;;
62610;SDS011;48683;48.084;17.272;2023-09-19T00:56:20;2.93;;;0.87;;
62610;SDS011;48683;48.084;17.272;2023-09-19T00:58:46;2.67;;;1.33;;
62610;SDS011;48683;48.084;17.272;2023-09-19T01:01:15;2.15;;;0.93;;
62610;SDS011;48683;48.084;17.272;2023-09-19T01:03:42;2.05;;;1.13;;
62610;SDS011;48683;48.084;17.272;2023-09-19T01:06:08;2.70;;;1.20;;
62610;SDS011;48683;48.084;17.272;2023-09-19T01:08:34;3.10;;;0.87;;
62610;SDS011;48683;48.084;17.272;2023-09-19T01:13:56;1.88;;;0.80;;
62610;SDS011;48683;48.084;17.272;2023-09-19T01:27:43;0.80;;;0.80;;
62610;SDS011;48683;48.084;17.272;2023-09-19T01:30:33;1.55;;;0.90;;
62610;SDS011;48683;48.084;17.272;2023-09-19T01:33:04;3.55;;;1.35;;
62610;SDS011;48683;48.084;17.272;2023-09-19T01:35:31;1.40;;;0.80;;
62610;SDS011;48683;48.084;17.272;2023-09-19T01:37:57;3.55;;;0.90;;
62610;SDS011;48683;48.084;17.272;2023-09-19T01:40:24;2.15;;;0.80;;
62610;SDS011;48683;48.084;17.272;2023-09-19T01:48:15;1.85;;;0.93;;
62610;SDS011;48683;48.084;17.272;2023-09-19T01:51:07;1.27;;;0.80;;
62610;SDS011;48683;48.084;17.272;2023-09-19T01:53:36;2.92;;;1.05;;
62610;SDS011;48683;48.084;17.272;2023-09-19T01:56:23;1.90;;;1.00;;
62610;SDS011;48683;48.084;17.272;2023-09-19T01:58:54;2.92;;;1.00;;
62610;SDS011;48683;48.084;17.272;2023-09-19T02:01:22;1.45;;;1.10;;
62610;SDS011;48683;48.084;17.272;2023-09-19T02:03:50;2.00;;;1.20;;
62610;SDS011;48683;48.084;17.272;2023-09-19T02:06:15;1.60;;;1.13;;
62610;SDS011;48683;48.084;17.272;2023-09-19T02:08:42;2.03;;;0.90;;
62610;SDS011;48683;48.084;17.272;2023-09-19T02:11:08;1.40;;;1.00;;
62610;SDS011;48683;48.084;17.272;2023-09-19T02:13:33;1.83;;;1.00;;
62610;SDS011;48683;48.084;17.272;2023-09-19T02:15:59;1.47;;;0.90;;
62610;SDS011;48683;48.084;17.272;2023-09-19T02:18:24;0.90;;;0.80;;
62610;SDS011;48683;48.084;17.272;2023-09-19T02:25:43;0.87;;;0.70;;
62610;SDS011;48683;48.084;17.272;2023-09-19T02:28:17;1.65;;;1.00;;
62610;SDS011;48683;48.084;17.272;2023-09-19T02:30:42;1.90;;;0.70;;
62610;SDS011;48683;48.084;17.272;2023-09-19T02:33:07;1.00;;;0.87;;
62610;SDS011;48683;48.084;17.272;2023-09-19T02:35:33;2.53;;;0.77;;
62610;SDS011;48683;48.084;17.272;2023-09-19T02:38:01;1.70;;;0.93;;
62610;SDS011;48683;48.084;17.272;2023-09-19T02:40:27;2.22;;;1.00;;
62610;SDS011;48683;48.084;17.272;2023-09-19T02:42:54;2.22;;;1.10;;
62610;SDS011;48683;48.084;17.272;2023-09-19T02:45:21;2.80;;;1.05;;
62610;SDS011;48683;48.084;17.272;2023-09-19T02:50:13;3.57;;;0.70;;
62610;SDS011;48683;48.084;17.272;2023-09-19T02:52:41;1.55;;;0.93;;
62610;SDS011;48683;48.084;17.272;2023-09-19T02:55:12;1.10;;;0.85;;
62610;SDS011;48683;48.084;17.272;2023-09-19T02:57:45;1.08;;;0.90;;
62610;SDS011;48683;48.084;17.272;2023-09-19T03:00:11;1.45;;;0.80;;
62610;SDS011;48683;48.084;17.272;2023-09-19T03:02:37;1.85;;;0.80;;
62610;SDS011;48683;48.084;17.272;2023-09-19T03:05:05;0.98;;;0.82;;
62610;SDS011;48683;48.084;17.272;2023-09-19T03:07:30;1.63;;;0.90;;
62610;SDS011;48683;48.084;17.272;2023-09-19T03:09:56;1.27;;;0.80;;
62610;SDS011;48683;48.084;17.272;2023-09-19T03:12:21;9.70;;;1.40;;
62610;SDS011;48683;48.084;17.272;2023-09-19T03:14:47;2.27;;;1.03;;
62610;SDS011;48683;48.084;17.272;2023-09-19T03:17:13;1.63;;;0.90;;
62610;SDS011;48683;48.084;17.272;2023-09-19T03:19:39;3.42;;;1.17;;
62610;SDS011;48683;48.084;17.272;2023-09-19T03:22:05;2.27;;;1.10;;
62610;SDS011;48683;48.084;17.272;2023-09-19T03:24:31;2.17;;;0.90;;
62610;SDS011;48683;48.084;17.272;2023-09-19T03:26:59;3.15;;;1.00;;
62610;SDS011;48683;48.084;17.272;2023-09-19T03:29:25;3.42;;;1.08;;
62610;SDS011;48683;48.084;17.272;2023-09-19T03:31:50;1.43;;;0.90;;
62610;SDS011;48683;48.084;17.272;2023-09-19T03:34:16;3.33;;;0.90;;
62610;SDS011;48683;48.084;17.272;2023-09-19T03:36:42;1.33;;;0.90;;
62610;SDS011;48683;48.084;17.272;2023-09-19T03:39:07;1.90;;;1.00;;
62610;SDS011;48683;48.084;17.272;2023-09-19T03:41:33;2.97;;;1.10;;
62610;SDS011;48683;48.084;17.272;2023-09-19T03:44:01;1.55;;;1.00;;
62610;SDS011;48683;48.084;17.272;2023-09-19T03:46:27;2.07;;;1.00;;
62610;SDS011;48683;48.084;17.272;2023-09-19T03:48:52;2.13;;;1.10;;
62610;SDS011;48683;48.084;17.272;2023-09-19T03:51:19;2.20;;;1.13;;
62610;SDS011;48683;48.084;17.272;2023-09-19T03:53:45;4.27;;;1.10;;
62610;SDS011;48683;48.084;17.272;2023-09-19T03:56:10;2.97;;;1.37;;
62610;SDS011;48683;48.084;17.272;2023-09-19T03:58:36;5.43;;;1.67;;
62610;SDS011;48683;48.084;17.272;2023-09-19T04:01:04;4.80;;;1.60;;
62610;SDS011;48683;48.084;17.272;2023-09-19T04:03:31;5.32;;;1.75;;
62610;SDS011;48683;48.084;17.272;2023-09-19T04:06:10;4.97;;;1.05;;
62610;SDS011;48683;48.084;17.272;2023-09-19T04:08:36;3.88;;;1.40;;
62610;SDS011;48683;48.084;17.272;2023-09-19T04:11:02;2.77;;;1.40;;
62610;SDS011;48683;48.084;17.272;2023-09-19T04:13:27;7.87;;;1.60;;
62610;SDS011;48683;48.084;17.272;2023-09-19T04:15:53;3.87;;;1.13;;
62610;SDS011;48683;48.084;17.272;2023-09-19T04:18:18;3.87;;;1.70;;
62610;SDS011;48683;48.084;17.272;2023-09-19T04:23:14;2.45;;;1.63;;
62610;SDS011;48683;48.084;17.272;2023-09-19T04:25:40;4.97;;;1.80;;
62610;SDS011;48683;48.084;17.272;2023-09-19T04:28:23;2.75;;;1.83;;
62610;SDS011;48683;48.084;17.272;2023-09-19T04:30:49;3.13;;;2.23;;
62610;SDS011;48683;48.084;17.272;2023-09-19T04:33:14;4.80;;;3.70;;
62610;SDS011;48683;48.084;17.272;2023-09-19T04:35:40;5.53;;;4.03;;
62610;SDS011;48683;48.084;17.272;2023-09-19T04:38:07;5.95;;;4.05;;
62610;SDS011;48683;48.084;17.272;2023-09-19T04:40:33;5.40;;;4.93;;
62610;SDS011;48683;48.084;17.272;2023-09-19T04:42:59;5.27;;;4.13;;
62610;SDS011;48683;48.084;17.272;2023-09-19T04:45:25;7.07;;;4.35;;
62610;SDS011;48683;48.084;17.272;2023-09-19T04:47:52;5.15;;;4.13;;
62610;SDS011;48683;48.084;17.272;2023-09-19T04:50:40;5.13;;;4.45;;
62610;SDS011;48683;48.084;17.272;2023-09-19T04:53:35;8.40;;;3.50;;
62610;SDS011;48683;48.084;17.272;2023-09-19T04:56:01;3.93;;;2.17;;
62610;SDS011;48683;48.084;17.272;2023-09-19T04:58:28;5.18;;;2.08;;
62610;SDS011;48683;48.084;17.272;2023-09-19T05:00:56;3.85;;;1.90;;
62610;SDS011;48683;48.084;17.272;2023-09-19T05:03:22;4.90;;;1.87;;
62610;SDS011;48683;48.084;17.272;2023-09-19T05:05:47;3.83;;;1.50;;
62610;SDS011;48683;48.084;17.272;2023-09-19T05:08:13;2.93;;;1.97;;
62610;SDS011;48683;48.084;17.272;2023-09-19T05:10:39;5.47;;;2.22;;
62610;SDS011;48683;48.084;17.272;2023-09-19T05:13:05;4.80;;;2.70;;
62610;SDS011;48683;48.084;17.272;2023-09-19T05:15:32;7.55;;;2.50;;
62610;SDS011;48683;48.084;17.272;2023-09-19T05:17:58;3.25;;;2.25;;
62610;SDS011;48683;48.084;17.272;2023-09-19T05:20:23;5.13;;;1.83;;
62610;SDS011;48683;48.084;17.272;2023-09-19T05:22:57;2.28;;;1.80;;
62610;SDS011;48683;48.084;17.272;2023-09-19T05:25:23;2.30;;;1.60;;
62610;SDS011;48683;48.084;17.272;2023-09-19T05:27:52;3.50;;;1.45;;
62610;SDS011;48683;48.084;17.272;2023-09-19T05:30:20;4.65;;;1.70;;
62610;SDS011;48683;48.084;17.272;2023-09-19T05:32:45;2.30;;;1.20;;
62610;SDS011;48683;48.084;17.272;2023-09-19T05:35:10;8.13;;;1.53;;
62610;SDS011;48683;48.084;17.272;2023-09-19T05:37:38;3.97;;;1.67;;
62610;SDS011;48683;48.084;17.272;2023-09-19T05:40:03;2.33;;;1.27;;
62610;SDS011;48683;48.084;17.272;2023-09-19T05:42:35;4.80;;;1.52;;
62610;SDS011;48683;48.084;17.272;2023-09-19T05:45:00;2.63;;;1.40;;
62610;SDS011;48683;48.084;17.272;2023-09-19T05:47:26;2.80;;;1.63;;
62610;SDS011;48683;48.084;17.272;2023-09-19T05:49:51;3.33;;;1.57;;
62610;SDS011;48683;48.084;17.272;2023-09-19T05:52:17;2.40;;;1.60;;
62610;SDS011;48683;48.084;17.272;2023-09-19T05:54:43;7.17;;;1.70;;
62610;SDS011;48683;48.084;17.272;2023-09-19T05:57:08;2.37;;;1.80;;
62610;SDS011;48683;48.084;17.272;2023-09-19T05:59:35;3.25;;;1.67;;
62610;SDS011;48683;48.084;17.272;2023-09-19T06:02:01;5.90;;;2.00;;
62610;SDS011;48683;48.084;17.272;2023-09-19T06:04:26;2.97;;;1.50;;
62610;SDS011;48683;48.084;17.272;2023-09-19T06:06:51;1.83;;;1.43;;
62610;SDS011;48683;48.084;17.272;2023-09-19T06:09:17;2.77;;;1.40;;
62610;SDS011;48683;48.084;17.272;2023-09-19T06:11:42;3.00;;;1.47;;
62610;SDS011;48683;48.084;17.272;2023-09-19T06:14:08;7.33;;;2.00;;
62610;SDS011;48683;48.084;17.272;2023-09-19T06:16:35;5.22;;;1.88;;
62610;SDS011;48683;48.084;17.272;2023-09-19T06:19:01;7.50;;;1.60;;
62610;SDS011;48683;48.084;17.272;2023-09-19T06:21:27;6.13;;;2.33;;
62610;SDS011;48683;48.084;17.272;2023-09-19T06:24:00;3.40;;;2.25;;
62610;SDS011;48683;48.084;17.272;2023-09-19T06:26:25;3.07;;;1.90;;
62610;SDS011;48683;48.084;17.272;2023-09-19T06:28:56;3.72;;;1.48;;
62610;SDS011;48683;48.084;17.272;2023-09-19T06:31:21;1.97;;;1.50;;
62610;SDS011;48683;48.084;17.272;2023-09-19T06:33:51;1.50;;;1.33;;
62610;SDS011;48683;48.084;17.272;2023-09-19T06:36:22;4.13;;;1.83;;
62610;SDS011;48683;48.084;17.272;2023-09-19T06:38:47;3.00;;;1.73;;
62610;SDS011;48683;48.084;17.272;2023-09-19T06:41:16;2.33;;;1.67;;
62610;SDS011;48683;48.084;17.272;2023-09-19T06:43:42;3.67;;;1.80;;
62610;SDS011;48683;48.084;17.272;2023-09-19T06:46:07;2.00;;;1.77;;
62610;SDS011;48683;48.084;17.272;2023-09-19T06:48:34;2.85;;;1.70;;
62610;SDS011;48683;48.084;17.272;2023-09-19T06:51:00;6.50;;;2.30;;
62610;SDS011;48683;48.084;17.272;2023-09-19T06:53:30;4.13;;;1.73;;
62610;SDS011;48683;48.084;17.272;2023-09-19T06:55:57;9.43;;;2.25;;
62610;SDS011;48683;48.084;17.272;2023-09-19T06:58:23;3.65;;;1.77;;
62610;SDS011;48683;48.084;17.272;2023-09-19T07:00:48;3.53;;;1.50;;
62610;SDS011;48683;48.084;17.272;2023-09-19T07:03:15;5.28;;;2.15;;
62610;SDS011;48683;48.084;17.272;2023-09-19T07:05:45;4.57;;;2.10;;
62610;SDS011;48683;48.084;17.272;2023-09-19T07:08:12;3.90;;;1.92;;
62610;SDS011;48683;48.084;17.272;2023-09-19T07:10:39;5.57;;;2.10;;
62610;SDS011;48683;48.084;17.272;2023-09-19T07:13:06;3.97;;;1.90;;
62610;SDS011;48683;48.084;17.272;2023-09-19T07:15:36;3.20;;;2.00;;
62610;SDS011;48683;48.084;17.272;2023-09-19T07:18:04;5.70;;;3.33;;
62610;SDS011;48683;48.084;17.272;2023-09-19T07:20:30;5.63;;;5.13;;
62610;SDS011;48683;48.084;17.272;2023-09-19T07:22:57;4.97;;;4.15;;
62610;SDS011;48683;48.084;17.272;2023-09-19T07:25:24;4.00;;;2.40;;
62610;SDS011;48683;48.084;17.272;2023-09-19T07:27:50;2.93;;;2.13;;
62610;SDS011;48683;48.084;17.272;2023-09-19T07:30:16;3.43;;;1.90;;
62610;SDS011;48683;48.084;17.272;2023-09-19T07:32:42;3.37;;;1.77;;
62610;SDS011;48683;48.084;17.272;2023-09-19T07:35:07;6.10;;;2.00;;
62610;SDS011;48683;48.084;17.272;2023-09-19T07:37:33;3.13;;;1.67;;
62610;SDS011;48683;48.084;17.272;2023-09-19T07:39:58;4.50;;;1.60;;
62610;SDS011;48683;48.084;17.272;2023-09-19T07:42:25;4.50;;;1.92;;
62610;SDS011;48683;48.084;17.272;2023-09-19T07:44:51;4.30;;;2.03;;
62610;SDS011;48683;48.084;17.272;2023-09-19T07:47:18;3.10;;;1.85;;
62610;SDS011;48683;48.084;17.272;2023-09-19T07:49:49;2.72;;;1.83;;
62610;SDS011;48683;48.084;17.272;2023-09-19T07:52:14;4.43;;;1.92;;
62610;SDS011;48683;48.084;17.272;2023-09-19T07:54:40;2.33;;;1.70;;
62610;SDS011;48683;48.084;17.272;2023-09-19T07:57:06;2.90;;;1.70;;
62610;SDS011;48683;48.084;17.272;2023-09-19T07:59:32;2.03;;;1.70;;
62610;SDS011;48683;48.084;17.272;2023-09-19T08:01:57;2.87;;;1.73;;
62610;SDS011;48683;48.084;17.272;2023-09-19T08:04:23;2.40;;;1.70;;
62610;SDS011;48683;48.084;17.272;2023-09-19T08:06:50;3.53;;;1.73;;
62610;SDS011;48683;48.084;17.272;2023-09-19T08:09:17;3.05;;;1.60;;
62610;SDS011;48683;48.084;17.272;2023-09-19T08:11:45;3.28;;;1.80;;
62610;SDS011;48683;48.084;17.272;2023-09-19T08:14:11;3.88;;;1.75;;
62610;SDS011;48683;48.084;17.272;2023-09-19T08:16:39;3.28;;;1.80;;
62610;SDS011;48683;48.084;17.272;2023-09-19T08:19:05;3.37;;;1.77;;
62610;SDS011;48683;48.084;17.272;2023-09-19T08:21:30;2.23;;;1.77;;
62610;SDS011;48683;48.084;17.272;2023-09-19T08:23:57;4.00;;;1.92;;
62610;SDS011;48683;48.084;17.272;2023-09-19T08:26:22;2.77;;;1.60;;
62610;SDS011;48683;48.084;17.272;2023-09-19T08:28:49;2.22;;;1.80;;
62610;SDS011;48683;48.084;17.272;2023-09-19T08:31:16;3.25;;;1.75;;
62610;SDS011;48683;48.084;17.272;2023-09-19T08:33:42;2.88;;;1.70;;
62610;SDS011;48683;48.084;17.272;2023-09-19T08:36:12;2.95;;;1.80;;
62610;SDS011;48683;48.084;17.272;2023-09-19T08:38:39;2.10;;;1.70;;
62610;SDS011;48683;48.084;17.272;2023-09-19T08:41:07;3.50;;;1.80;;
62610;SDS011;48683;48.084;17.272;2023-09-19T08:43:33;3.83;;;2.05;;
62610;SDS011;48683;48.084;17.272;2023-09-19T08:48:30;5.88;;;1.98;;
62610;SDS011;48683;48.084;17.272;2023-09-19T08:51:03;5.25;;;2.20;;
62610;SDS011;48683;48.084;17.272;2023-09-19T08:56:11;3.40;;;2.10;;
62610;SDS011;48683;48.084;17.272;2023-09-19T08:58:45;3.53;;;1.70;;
62610;SDS011;48683;48.084;17.272;2023-09-19T09:01:16;3.30;;;2.10;;
62610;SDS011;48683;48.084;17.272;2023-09-19T09:03:47;5.57;;;2.00;;
62610;SDS011;48683;48.084;17.272;2023-09-19T09:06:14;2.60;;;1.93;;
62610;SDS011;48683;48.084;17.272;2023-09-19T09:08:40;4.03;;;1.80;;
62610;SDS011;48683;48.084;17.272;2023-09-19T09:11:07;1.77;;;1.52;;
62610;SDS011;48683;48.084;17.272;2023-09-19T09:13:34;6.63;;;2.30;;
62610;SDS011;48683;48.084;17.272;2023-09-19T09:16:01;6.55;;;1.98;;
62610;SDS011;48683;48.084;17.272;2023-09-19T09:18:27;3.13;;;1.83;;
62610;SDS011;48683;48.084;17.272;2023-09-19T09:20:55;4.60;;;2.35;;
62610;SDS011;48683;48.084;17.272;2023-09-19T09:23:21;3.28;;;1.90;;
62610;SDS011;48683;48.084;17.272;2023-09-19T09:25:49;3.43;;;1.67;;
62610;SDS011;48683;48.084;17.272;2023-09-19T09:28:32;2.50;;;1.87;;
62610;SDS011;48683;48.084;17.272;2023-09-19T09:30:59;4.38;;;2.10;;
62610;SDS011;48683;48.084;17.272;2023-09-19T09:33:24;5.47;;;1.92;;
62610;SDS011;48683;48.084;17.272;2023-09-19T09:35:51;1.87;;;1.60;;
62610;SDS011;48683;48.084;17.272;2023-09-19T09:38:18;3.03;;;1.67;;
62610;SDS011;48683;48.084;17.272;2023-09-19T09:40:48;3.70;;;1.80;;
62610;SDS011;48683;48.084;17.272;2023-09-19T09:43:35;2.47;;;1.70;;
62610;SDS011;48683;48.084;17.272;2023-09-19T09:46:18;2.30;;;1.48;;
62610;SDS011;48683;48.084;17.272;2023-09-19T09:48:47;6.63;;;1.80;;
62610;SDS011;48683;48.084;17.272;2023-09-19T09:51:36;3.33;;;1.80;;
62610;SDS011;48683;48.084;17.272;2023-09-19T09:54:11;2.75;;;1.40;;
62610;SDS011;48683;48.084;17.272;2023-09-19T09:59:51;3.42;;;1.80;;
62610;SDS011;48683;48.084;17.272;2023-09-19T10:02:21;3.75;;;1.83;;
62610;SDS011;48683;48.084;17.272;2023-09-19T10:04:54;3.40;;;1.83;;
62610;SDS011;48683;48.084;17.272;2023-09-19T10:07:27;3.28;;;2.08;;
62610;SDS011;48683;48.084;17.272;2023-09-19T10:09:57;3.58;;;1.70;;
62610;SDS011;48683;48.084;17.272;2023-09-19T10:12:42;4.90;;;2.08;;
62610;SDS011;48683;48.084;17.272;2023-09-19T10:15:08;2.63;;;1.88;;
62610;SDS011;48683;48.084;17.272;2023-09-19T10:17:36;2.90;;;1.60;;
62610;SDS011;48683;48.084;17.272;2023-09-19T10:20:02;3.00;;;1.90;;
62610;SDS011;48683;48.084;17.272;2023-09-19T10:22:42;5.57;;;2.45;;
62610;SDS011;48683;48.084;17.272;2023-09-19T10:25:09;3.25;;;2.00;;
62610;SDS011;48683;48.084;17.272;2023-09-19T10:27:35;3.33;;;1.90;;
62610;SDS011;48683;48.084;17.272;2023-09-19T10:30:03;2.50;;;1.95;;
62610;SDS011;48683;48.084;17.272;2023-09-19T10:32:32;3.70;;;2.00;;
62610;SDS011;48683;48.084;17.272;2023-09-19T10:35:00;4.88;;;1.95;;
62610;SDS011;48683;48.084;17.272;2023-09-19T10:37:27;2.22;;;1.70;;
62610;SDS011;48683;48.084;17.272;2023-09-19T10:39:57;3.00;;;1.83;;
62610;SDS011;48683;48.084;17.272;2023-09-19T10:42:23;4.13;;;2.40;;
62610;SDS011;48683;48.084;17.272;2023-09-19T10:44:54;3.97;;;1.70;;
62610;SDS011;48683;48.084;17.272;2023-09-19T10:47:25;5.40;;;1.83;;
62610;SDS011;48683;48.084;17.272;2023-09-19T10:49:50;3.37;;;1.73;;
62610;SDS011;48683;48.084;17.272;2023-09-19T10:52:21;2.53;;;1.90;;
62610;SDS011;48683;48.084;17.272;2023-09-19T10:54:50;4.72;;;2.00;;
62610;SDS011;48683;48.084;17.272;2023-09-19T10:57:22;4.13;;;1.77;;
62610;SDS011;48683;48.084;17.272;2023-09-19T11:05:40;3.33;;;2.00;;
62610;SDS011;48683;48.084;17.272;2023-09-19T11:08:09;4.03;;;1.70;;
62610;SDS011;48683;48.084;17.272;2023-09-19T11:10:50;4.03;;;1.80;;
62610;SDS011;48683;48.084;17.272;2023-09-19T11:13:26;4.47;;;2.13;;
62610;SDS011;48683;48.084;17.272;2023-09-19T11:26:47;6.00;;;2.00;;
62610;SDS011;48683;48.084;17.272;2023-09-19T11:29:26;3.00;;;2.05;;
62610;SDS011;48683;48.084;17.272;2023-09-19T11:31:56;2.42;;;1.73;;
62610;SDS011;48683;48.084;17.272;2023-09-19T11:39:37;2.42;;;1.50;;
62610;SDS011;48683;48.084;17.272;2023-09-19T11:44:48;5.45;;;1.67;;
62610;SDS011;48683;48.084;17.272;2023-09-19T11:47:16;3.75;;;1.70;;
62610;SDS011;48683;48.084;17.272;2023-09-19T11:49:44;4.30;;;1.60;;
62610;SDS011;48683;48.084;17.272;2023-09-19T11:52:09;2.63;;;1.40;;
62610;SDS011;48683;48.084;17.272;2023-09-19T11:54:35;3.00;;;2.00;;
62610;SDS011;48683;48.084;17.272;2023-09-19T11:57:05;3.10;;;1.65;;
62610;SDS011;48683;48.084;17.272;2023-09-19T12:01:58;6.47;;;1.73;;
62610;SDS011;48683;48.084;17.272;2023-09-19T12:04:33;4.07;;;2.22;;
62610;SDS011;48683;48.084;17.272;2023-09-19T12:07:14;5.10;;;2.10;;
62610;SDS011;48683;48.084;17.272;2023-09-19T12:09:46;3.65;;;2.00;;
62610;SDS011;48683;48.084;17.272;2023-09-19T12:12:23;1.95;;;1.70;;
62610;SDS011;48683;48.084;17.272;2023-09-19T12:14:52;5.57;;;2.13;;
62610;SDS011;48683;48.084;17.272;2023-09-19T12:29:57;2.22;;;1.60;;
62610;SDS011;48683;48.084;17.272;2023-09-19T12:32:34;4.90;;;1.70;;
62610;SDS011;48683;48.084;17.272;2023-09-19T12:37:32;2.22;;;1.60;;
62610;SDS011;48683;48.084;17.272;2023-09-19T12:40:08;3.80;;;1.80;;
62610;SDS011;48683;48.084;17.272;2023-09-19T12:45:12;2.03;;;1.40;;
62610;SDS011;48683;48.084;17.272;2023-09-19T12:47:40;2.20;;;1.48;;
62610;SDS011;48683;48.084;17.272;2023-09-19T12:50:25;4.10;;;1.92;;
62610;SDS011;48683;48.084;17.272;2023-09-19T12:52:54;2.40;;;1.60;;
62610;SDS011;48683;48.084;17.272;2023-09-19T13:00:30;2.83;;;1.50;;
62610;SDS011;48683;48.084;17.272;2023-09-19T13:05:50;3.50;;;1.55;;
62610;SDS011;48683;48.084;17.272;2023-09-19T13:11:10;3.42;;;1.48;;
62610;SDS011;48683;48.084;17.272;2023-09-19T13:13:42;3.35;;;1.58;;
62610;SDS011;48683;48.084;17.272;2023-09-19T13:16:18;1.83;;;1.40;;
62610;SDS011;48683;48.084;17.272;2023-09-19T13:18:47;3.35;;;1.33;;
62610;SDS011;48683;48.084;17.272;2023-09-19T13:21:26;1.15;;;1.00;;
62610;SDS011;48683;48.084;17.272;2023-09-19T13:24:17;2.40;;;1.17;;
62610;SDS011;48683;48.084;17.272;2023-09-19T13:26:53;2.33;;;1.40;;
62610;SDS011;48683;48.084;17.272;2023-09-19T13:29:19;2.85;;;1.58;;
62610;SDS011;48683;48.084;17.272;2023-09-19T13:31:45;2.10;;;1.37;;
62610;SDS011;48683;48.084;17.272;2023-09-19T13:34:12;2.63;;;1.30;;
62610;SDS011;48683;48.084;17.272;2023-09-19T13:36:39;1.80;;;1.27;;
62610;SDS011;48683;48.084;17.272;2023-09-19T13:39:04;1.53;;;1.03;;
62610;SDS011;48683;48.084;17.272;2023-09-19T13:41:30;3.78;;;1.70;;
62610;SDS011;48683;48.084;17.272;2023-09-19T13:46:22;2.20;;;1.30;;
62610;SDS011;48683;48.084;17.272;2023-09-19T13:48:51;2.90;;;1.75;;
62610;SDS011;48683;48.084;17.272;2023-09-19T13:51:20;2.30;;;1.40;;
62610;SDS011;48683;48.084;17.272;2023-09-19T13:53:48;4.45;;;1.52;;
62610;SDS011;48683;48.084;17.272;2023-09-19T13:56:15;2.45;;;1.60;;
62610;SDS011;48683;48.084;17.272;2023-09-19T13:58:41;3.77;;;1.83;;
62610;SDS011;48683;48.084;17.272;2023-09-19T14:01:06;5.30;;;2.17;;
62610;SDS011;48683;48.084;17.272;2023-09-19T14:03:37;2.60;;;2.40;;
62610;SDS011;48683;48.084;17.272;2023-09-19T14:06:03;4.35;;;2.33;;
62610;SDS011;48683;48.084;17.272;2023-09-19T14:08:29;2.63;;;2.43;;
62610;SDS011;48683;48.084;17.272;2023-09-19T14:10:54;3.03;;;2.73;;
62610;SDS011;48683;48.084;17.272;2023-09-19T14:13:19;3.87;;;2.43;;
62610;SDS011;48683;48.084;17.272;2023-09-19T14:15:45;3.47;;;2.17;;
62610;SDS011;48683;48.084;17.272;2023-09-19T14:18:11;3.83;;;1.60;;
62610;SDS011;48683;48.084;17.272;2023-09-19T14:20:39;2.60;;;1.83;;
62610;SDS011;48683;48.084;17.272;2023-09-19T14:23:06;2.95;;;1.55;;
62610;SDS011;48683;48.084;17.272;2023-09-19T14:25:33;2.33;;;1.50;;
62610;SDS011;48683;48.084;17.272;2023-09-19T14:27:59;3.10;;;1.70;;
62610;SDS011;48683;48.084;17.272;2023-09-19T14:30:25;3.03;;;1.57;;
62610;SDS011;48683;48.084;17.272;2023-09-19T14:32:51;2.87;;;1.87;;
62610;SDS011;48683;48.084;17.272;2023-09-19T14:35:16;2.33;;;1.97;;
62610;SDS011;48683;48.084;17.272;2023-09-19T14:37:42;2.13;;;1.60;;
62610;SDS011;48683;48.084;17.272;2023-09-19T14:40:08;2.10;;;1.50;;
62610;SDS011;48683;48.084;17.272;2023-09-19T14:42:35;3.00;;;1.63;;
62610;SDS011;48683;48.084;17.272;2023-09-19T14:45:03;2.90;;;1.55;;
62610;SDS011;48683;48.084;17.272;2023-09-19T14:47:30;3.97;;;1.80;;
62610;SDS011;48683;48.084;17.272;2023-09-19T14:49:57;3.22;;;1.73;;
62610;SDS011;48683;48.084;17.272;2023-09-19T14:52:23;4.40;;;2.17;;
62610;SDS011;48683;48.084;17.272;2023-09-19T14:54:48;9.87;;;2.07;;
62610;SDS011;48683;48.084;17.272;2023-09-19T14:57:14;5.73;;;2.20;;
62610;SDS011;48683;48.084;17.272;2023-09-19T14:59:39;4.70;;;1.97;;
62610;SDS011;48683;48.084;17.272;2023-09-19T15:02:05;6.13;;;2.10;;
62610;SDS011;48683;48.084;17.272;2023-09-19T15:04:31;3.63;;;2.10;;
62610;SDS011;48683;48.084;17.272;2023-09-19T15:06:56;3.10;;;1.90;;
62610;SDS011;48683;48.084;17.272;2023-09-19T15:09:22;4.33;;;2.10;;
62610;SDS011;48683;48.084;17.272;2023-09-19T15:11:54;3.63;;;1.90;;
62610;SDS011;48683;48.084;17.272;2023-09-19T15:14:20;4.28;;;1.80;;
62610;SDS011;48683;48.084;17.272;2023-09-19T15:19:13;3.40;;;2.15;;
62610;SDS011;48683;48.084;17.272;2023-09-19T15:21:39;4.60;;;2.23;;
62610;SDS011;48683;48.084;17.272;2023-09-19T15:24:05;3.50;;;1.90;;
62610;SDS011;48683;48.084;17.272;2023-09-19T15:26:34;2.58;;;1.52;;
62610;SDS011;48683;48.084;17.272;2023-09-19T15:29:00;4.55;;;1.90;;
62610;SDS011;48683;48.084;17.272;2023-09-19T15:31:25;3.90;;;1.70;;
62610;SDS011;48683;48.084;17.272;2023-09-19T15:33:51;3.57;;;2.10;;
62610;SDS011;48683;48.084;17.272;2023-09-19T15:36:16;5.53;;;2.60;;
62610;SDS011;48683;48.084;17.272;2023-09-19T15:41:22;3.47;;;2.47;;
62610;SDS011;48683;48.084;17.272;2023-09-19T15:43:48;2.85;;;2.20;;
62610;SDS011;48683;48.084;17.272;2023-09-19T15:46:14;6.23;;;2.77;;
62610;SDS011;48683;48.084;17.272;2023-09-19T15:48:40;5.65;;;2.88;;
62610;SDS011;48683;48.084;17.272;2023-09-19T15:51:05;4.83;;;2.80;;
62610;SDS011;48683;48.084;17.272;2023-09-19T15:53:46;4.17;;;2.93;;
62610;SDS011;48683;48.084;17.272;2023-09-19T15:56:16;3.92;;;3.30;;
62610;SDS011;48683;48.084;17.272;2023-09-19T15:58:45;5.10;;;3.30;;
62610;SDS011;48683;48.084;17.272;2023-09-19T16:01:12;5.18;;;3.60;;
62610;SDS011;48683;48.084;17.272;2023-09-19T16:03:38;7.53;;;3.50;;
62610;SDS011;48683;48.084;17.272;2023-09-19T16:06:08;5.93;;;3.70;;
62610;SDS011;48683;48.084;17.272;2023-09-19T16:08:35;7.30;;;3.38;;
62610;SDS011;48683;48.084;17.272;2023-09-19T16:11:03;6.18;;;3.47;;
62610;SDS011;48683;48.084;17.272;2023-09-19T16:13:28;6.60;;;3.50;;
62610;SDS011;48683;48.084;17.272;2023-09-19T16:15:54;6.40;;;3.57;;
62610;SDS011;48683;48.084;17.272;2023-09-19T16:18:19;3.53;;;2.67;;
62610;SDS011;48683;48.084;17.272;2023-09-19T16:20:44;3.03;;;2.30;;